Preveza, Greece
Current Conditions -  °F | °C
As of 8:20 AM on Friday 31 Oct 2014 (Local Time) from LGPZ Reporting Station
Scattered Clouds Scattered Clouds  
Wind Chill: 59°   Ceiling: Unl
Heat Index: 59°   Visibility: 6mi
Dew Point: 48°   Wind: 9mph
Humidity: 67%   Direction: 70°ENE
Pressure: 30.06"   Gusts: NA
Location:  38.95°N, 20.75°E
Report Text: LGPZ 310520Z 07008KT 9999 FEW020TCU SCT170 15/09 Q1018
Loading
Personal Weather Stations






























Interactive Weather Map
Tropical Storm Tracking
New forecast layout! Learn more

10-Day Weather Forecast

Advertisements
Track Severe Weather on mobile